Time;durP1;ratioP1;P1;durP2;ratioP2;P2;SDS_P1;SDS_P2;PMS_P1;PMS_P2;Temp;Humidity;BMP_temperature;BMP_pressure;BME280_temperature;BME280_humidity;BME280_pressure;Samples;Min_cycle;Max_cycle;Signal;HPM_P1;HPM_P2
2022/06/09 00:05:22;;;;;;;13.40;9.23;;;17.40;36.50;;;;;;10276487;28;20195;-81
2022/06/09 00:10:51;;;;;;;15.13;9.95;;;17.30;38.50;;;;;;10261483;28;20227;-83
2022/06/09 00:16:13;;;;;;;13.32;9.20;;;17.20;48.20;;;;;;10262010;28;20203;-81
2022/06/09 00:21:36;;;;;;;14.82;9.63;;;17.20;53.90;;;;;;10274697;28;20201;-81
2022/06/09 00:26:57;;;;;;;12.70;8.98;;;17.10;50.40;;;;;;10291760;28;20204;-83
2022/06/09 00:32:19;;;;;;;9.63;7.50;;;17.10;55.70;;;;;;10284806;28;20275;-81
2022/06/09 00:37:40;;;;;;;9.57;8.40;;;17.20;45.50;;;;;;10261275;28;20203;-80
2022/06/09 00:43:03;;;;;;;9.80;8.68;;;17.10;55.90;;;;;;10261145;28;20195;-84
2022/06/09 00:48:36;;;;;;;11.02;8.73;;;17.10;51.10;;;;;;10262068;28;20226;-80
2022/06/09 00:54:04;;;;;;;11.57;8.40;;;17.10;51.00;;;;;;10251672;28;20227;-79
2022/06/09 00:59:27;;;;;;;10.18;7.85;;;17.00;50.80;;;;;;10267375;28;20199;-83
2022/06/09 01:04:52;;;;;;;8.43;7.22;;;16.90;51.30;;;;;;10260866;28;20195;-84
2022/06/09 01:10:14;;;;;;;9.63;8.02;;;16.90;54.70;;;;;;10272797;28;20231;-79
2022/06/09 01:15:54;;;;;;;9.13;7.82;;;16.80;55.60;;;;;;10260188;28;20234;-79
2022/06/09 01:21:41;;;;;;;8.18;7.40;;;16.70;67.90;;;;;;10277206;28;20195;-81
2022/06/09 01:27:31;;;;;;;8.98;7.72;;;16.60;84.90;;;;;;10298774;28;20190;-83
2022/06/09 01:33:03;;;;;;;9.73;7.60;;;16.60;83.40;;;;;;10241705;29;20237;-84
2022/06/09 01:38:25;;;;;;;10.15;8.10;;;16.50;88.30;;;;;;10270845;28;20515;-80
2022/06/09 01:43:48;;;;;;;10.55;7.93;;;16.40;77.90;;;;;;10280707;28;20277;-79
2022/06/09 01:49:12;;;;;;;11.30;8.80;;;16.30;91.40;;;;;;10280448;28;20229;-80
2022/06/09 01:54:38;;;;;;;9.73;7.97;;;16.30;90.80;;;;;;10280834;28;20220;-81
2022/06/09 02:00:07;;;;;;;10.18;8.07;;;16.30;95.60;;;;;;10280291;28;20229;-81
2022/06/09 02:05:37;;;;;;;9.70;7.90;;;16.20;92.90;;;;;;10267241;28;20284;-80
2022/06/09 02:11:05;;;;;;;10.25;7.65;;;16.20;92.10;;;;;;10279723;28;20284;-83
2022/06/09 02:16:27;;;;;;;12.48;8.65;;;16.10;92.30;;;;;;10266034;28;20583;-83
2022/06/09 02:21:48;;;;;;;10.60;8.10;;;16.10;96.00;;;;;;10265470;28;20194;-82
2022/06/09 02:27:10;;;;;;;8.93;7.30;;;16.20;98.90;;;;;;10279303;28;20209;-84
2022/06/09 02:32:32;;;;;;;9.85;7.95;;;16.10;95.40;;;;;;10278938;28;20199;-82
2022/06/09 02:37:54;;;;;;;10.15;8.70;;;16.10;99.90;;;;;;10265224;28;20232;-82
2022/06/09 02:43:16;;;;;;;9.50;7.85;;;16.10;99.90;;;;;;10279418;28;20489;-79
2022/06/09 02:48:38;;;;;;;9.15;8.15;;;16.10;99.90;;;;;;10278403;28;20238;-81
2022/06/09 02:54:03;;;;;;;9.75;8.73;;;16.10;99.90;;;;;;10264511;28;20237;-82
2022/06/09 02:59:24;;;;;;;10.40;9.40;;;16.10;99.90;;;;;;10277962;28;20416;-79
2022/06/09 03:04:47;;;;;;;14.32;9.40;;;16.00;99.90;;;;;;10278105;28;20199;-80
2022/06/09 03:10:08;;;;;;;10.55;9.00;;;16.00;98.60;;;;;;10273659;28;20231;-80
2022/06/09 03:15:30;;;;;;;12.15;9.93;;;15.90;99.90;;;;;;10263915;28;20205;-79
2022/06/09 03:20:51;;;;;;;10.05;9.02;;;16.10;99.90;;;;;;10263753;28;20209;-79
2022/06/09 03:26:13;;;;;;;9.25;8.27;;;16.20;99.90;;;;;;10276919;28;20277;-79
2022/06/09 03:31:34;;;;;;;9.80;8.65;;;16.20;99.90;;;;;;10292631;28;20234;-82
2022/06/09 03:36:56;;;;;;;10.25;8.68;;;16.20;99.90;;;;;;10276780;28;20383;-82
2022/06/09 03:42:17;;;;;;;10.45;9.02;;;16.30;98.10;;;;;;10262035;28;20198;-80
2022/06/09 03:47:39;;;;;;;11.13;9.77;;;16.40;99.90;;;;;;10276377;28;20257;-80
2022/06/09 03:53:01;;;;;;;10.43;9.32;;;16.40;99.90;;;;;;10262129;28;20246;-79
2022/06/09 03:58:23;;;;;;;9.98;8.98;;;16.40;99.90;;;;;;10236305;29;20199;-81
2022/06/09 04:03:46;;;;;;;16.63;11.90;;;16.60;99.90;;;;;;10262079;28;20382;-84
2022/06/09 04:09:08;;;;;;;12.98;9.93;;;16.60;99.90;;;;;;10274407;28;20230;-80
2022/06/09 04:14:30;;;;;;;11.13;9.80;;;16.60;99.90;;;;;;10275534;28;20194;-81
2022/06/09 04:19:51;;;;;;;11.82;10.52;;;16.70;99.90;;;;;;10261322;29;20201;-80
2022/06/09 04:25:14;;;;;;;11.25;10.00;;;16.80;99.90;;;;;;10277243;28;20207;-84
2022/06/09 04:30:35;;;;;;;13.23;11.52;;;17.00;99.90;;;;;;10286559;28;20227;-80
2022/06/09 04:35:56;;;;;;;11.52;10.38;;;17.10;99.90;;;;;;10274603;28;20221;-82
2022/06/09 04:41:18;;;;;;;13.57;12.07;;;17.30;99.90;;;;;;10260379;29;20195;-81
2022/06/09 04:46:39;;;;;;;13.75;12.35;;;17.40;99.90;;;;;;10274442;28;20191;-80
2022/06/09 04:52:01;;;;;;;12.80;11.15;;;17.50;99.90;;;;;;10274564;28;20250;-80
2022/06/09 04:57:22;;;;;;;11.32;9.88;;;17.60;99.90;;;;;;10273542;28;20207;-80
2022/06/09 05:02:44;;;;;;;11.80;9.88;;;17.60;99.90;;;;;;10273902;28;20228;-80
2022/06/09 05:08:06;;;;;;;8.88;7.85;;;17.80;95.50;;;;;;10259592;28;20207;-82
2022/06/09 05:13:27;;;;;;;8.10;7.30;;;18.10;90.00;;;;;;10274061;28;20494;-81
2022/06/09 05:18:49;;;;;;;18.73;12.70;;;18.40;68.10;;;;;;10249131;29;20229;-79
2022/06/09 05:24:11;;;;;;;12.30;8.90;;;18.60;47.80;;;;;;10277014;28;20267;-80
2022/06/09 05:29:32;;;;;;;15.45;8.70;;;18.80;36.30;;;;;;10293745;28;20250;-84
2022/06/09 05:34:54;;;;;;;12.98;10.25;;;19.00;22.40;;;;;;10260104;28;20282;-83
2022/06/09 05:45:55;;;;;;;14.73;10.55;;;19.40;13.10;;;;;;10273321;28;20198;-81
2022/06/09 05:51:17;;;;;;;9.77;8.77;;;19.50;17.60;;;;;;10272727;28;20239;-79
2022/06/09 05:56:39;;;;;;;11.13;9.90;;;19.70;10.10;;;;;;10272873;28;20498;-85
2022/06/09 06:02:00;;;;;;;8.35;6.70;;;19.90;1.00;;;;;;10259236;28;20199;-82
2022/06/09 06:07:22;;;;;;;12.30;8.23;;;20.20;1.00;;;;;;10276016;28;20210;-84
2022/06/09 06:12:43;;;;;;;11.07;9.60;;;20.30;1.00;;;;;;10266059;28;20302;-81
2022/06/09 06:18:05;;;;;;;10.57;7.65;;;20.30;1.80;;;;;;10280876;28;20191;-85
2022/06/09 06:23:27;;;;;;;8.07;6.80;;;20.20;1.00;;;;;;10280264;28;20461;-81
2022/06/09 06:28:50;;;;;;;7.45;6.75;;;20.30;1.00;;;;;;10297051;28;20211;-82
2022/06/09 06:34:12;;;;;;;14.85;9.85;;;20.20;1.00;;;;;;10282641;28;20271;-84
2022/06/09 06:39:34;;;;;;;9.40;6.30;;;20.10;1.00;;;;;;10279018;28;20201;-81
2022/06/09 06:44:55;;;;;;;9.48;7.00;;;20.00;1.00;;;;;;10251000;29;20210;-82
2022/06/09 06:50:18;;;;;;;12.40;8.10;;;19.90;1.00;;;;;;10278752;28;20235;-82
2022/06/09 06:55:40;;;;;;;11.10;9.40;;;19.90;1.00;;;;;;10278253;28;20554;-84
2022/06/09 07:01:03;;;;;;;13.65;9.52;;;19.90;3.20;;;;;;10277477;28;20199;-82
2022/06/09 07:06:24;;;;;;;8.82;6.95;;;19.90;5.30;;;;;;10277350;28;20199;-85
2022/06/09 07:11:46;;;;;;;8.07;6.78;;;20.00;4.90;;;;;;10288999;28;20233;-80
2022/06/09 07:17:08;;;;;;;7.95;6.78;;;20.10;1.00;;;;;;10263151;28;20281;-84
2022/06/09 07:22:30;;;;;;;9.82;5.63;;;20.20;1.00;;;;;;10293165;28;20221;-80
2022/06/09 07:27:53;;;;;;;10.43;7.88;;;20.20;1.00;;;;;;10296336;28;20206;-83
2022/06/09 07:33:15;;;;;;;7.30;6.57;;;20.20;1.00;;;;;;10308385;28;20531;-85
2022/06/09 07:38:37;;;;;;;9.45;7.90;;;20.40;1.00;;;;;;10256436;28;20258;-83
2022/06/09 07:44:01;;;;;;;6.70;6.00;;;20.50;1.00;;;;;;10258745;28;20283;-83
2022/06/09 07:49:22;;;;;;;11.32;5.95;;;20.60;1.00;;;;;;10271481;28;20238;-84
2022/06/09 07:54:44;;;;;;;5.93;5.25;;;20.50;1.00;;;;;;10257355;28;20227;-86
2022/06/09 08:00:08;;;;;;;6.80;5.80;;;20.50;1.00;;;;;;10271676;28;20219;-86
2022/06/09 08:05:33;;;;;;;9.50;6.60;;;20.50;1.00;;;;;;10271291;28;20469;-81
2022/06/09 08:10:55;;;;;;;8.50;7.57;;;20.70;1.00;;;;;;10299217;28;20253;-87
2022/06/09 08:16:16;;;;;;;8.35;7.07;;;20.70;1.00;;;;;;10287033;28;20214;-85
2022/06/09 08:21:38;;;;;;;7.75;6.53;;;20.70;1.00;;;;;;10231439;29;20500;-85
2022/06/09 08:27:15;;;;;;;8.27;7.18;;;20.80;1.00;;;;;;10264395;28;20217;-83
2022/06/09 08:32:37;;;;;;;12.63;8.88;;;20.80;1.00;;;;;;10258257;28;20249;-87
2022/06/09 08:37:59;;;;;;;9.45;8.48;;;20.80;1.00;;;;;;10269274;28;20198;-81
2022/06/09 08:43:24;;;;;;;9.13;7.00;;;21.20;1.00;;;;;;10270162;28;20199;-80
2022/06/09 08:48:47;;;;;;;9.65;8.65;;;21.90;1.00;;;;;;10273036;28;20448;-81
2022/06/09 08:54:20;;;;;;;6.93;6.07;;;22.20;1.00;;;;;;10258989;28;20231;-85
2022/06/09 08:59:43;;;;;;;8.48;6.97;;;22.20;1.00;;;;;;10268498;28;20195;-85
2022/06/09 09:05:12;;;;;;;5.90;5.30;;;22.40;1.00;;;;;;10256350;28;20214;-85
2022/06/09 09:11:07;;;;;;;9.98;6.13;;;22.50;1.00;;;;;;10269520;28;20232;-83
2022/06/09 09:17:09;;;;;;;6.55;5.78;;;22.50;1.00;;;;;;10131807;29;20487;-84
2022/06/09 09:23:01;;;;;;;9.52;7.57;;;22.20;1.00;;;;;;10119401;29;20507;-84
2022/06/09 09:28:32;;;;;;;6.07;5.53;;;21.90;1.00;;;;;;10143833;29;20212;-84
2022/06/09 09:33:55;;;;;;;7.10;6.50;;;21.80;1.00;;;;;;10119032;29;20336;-82
2022/06/09 09:39:24;;;;;;;7.30;5.57;;;21.60;1.00;;;;;;10147827;29;20218;-84
2022/06/09 09:45:10;;;;;;;11.50;8.25;;;21.50;1.00;;;;;;10120451;29;20197;-84
2022/06/09 09:50:37;;;;;;;10.90;8.20;;;21.40;1.00;;;;;;10144519;29;20256;-84
2022/06/09 09:56:15;;;;;;;7.45;6.60;;;21.30;1.00;;;;;;10254505;28;20192;-83
2022/06/09 10:13:32;;;;;;;12.27;8.20;;;21.40;1.00;;;;;;10293785;28;20252;-82
2022/06/09 10:18:59;;;;;;;8.18;7.32;;;21.40;1.00;;;;;;10253440;28;20297;-83
2022/06/09 10:24:59;;;;;;;11.40;9.13;;;21.30;31.20;;;;;;10265136;28;20187;-89
2022/06/09 10:30:29;;;;;;;11.15;9.95;;;21.20;29.40;;;;;;10234256;29;20306;-82
2022/06/09 10:36:01;;;;;;;14.10;11.48;;;21.10;33.00;;;;;;10246359;28;20207;-82
2022/06/09 10:41:51;;;;;;;10.88;9.77;;;21.00;99.90;;;;;;10274335;28;20203;-82
2022/06/09 10:59:39;;;;;;;14.18;11.63;;;20.70;99.90;;;;;;10236754;29;20208;-84
2022/06/09 11:05:01;;;;;;;12.52;10.60;;;20.50;99.60;;;;;;10228852;28;20199;-84
2022/06/09 11:10:44;;;;;;;12.02;9.43;;;20.40;99.90;;;;;;10259023;28;20234;-83
2022/06/09 11:16:18;;;;;;;10.57;9.43;;;20.30;99.90;;;;;;10258623;28;20246;-84
2022/06/09 11:22:18;;;;;;;11.77;10.10;;;20.30;99.90;;;;;;10256666;28;20509;-84
2022/06/09 11:28:02;;;;;;;15.77;12.52;;;20.30;99.90;;;;;;10295582;28;20191;-84
2022/06/09 11:33:54;;;;;;;16.17;12.70;;;20.50;99.90;;;;;;10280374;28;20237;-84
2022/06/09 11:39:35;;;;;;;17.02;14.95;;;20.60;99.90;;;;;;10235035;29;20455;-83
2022/06/09 11:44:59;;;;;;;12.18;8.65;;;20.70;72.80;;;;;;10237590;28;20266;-84
2022/06/09 11:50:24;;;;;;;9.52;8.52;;;20.80;99.90;;;;;;10257833;28;20441;-82
2022/06/09 11:56:00;;;;;;;10.10;8.98;;;20.80;94.90;;;;;;10257996;28;20203;-83
2022/06/09 12:01:31;;;;;;;12.18;9.80;;;20.90;34.90;;;;;;10218656;29;20284;-86
2022/06/09 12:07:11;;;;;;;9.18;8.10;;;20.90;36.10;;;;;;10291380;28;20270;-85
2022/06/09 12:12:40;;;;;;;13.63;11.88;;;21.10;73.00;;;;;;10290389;28;20247;-82
2022/06/09 12:18:07;;;;;;;9.35;7.97;;;21.20;22.50;;;;;;10252318;28;20231;-83
2022/06/09 12:24:03;;;;;;;9.15;8.13;;;21.30;22.80;;;;;;10256765;28;20195;-84
2022/06/09 12:29:34;;;;;;;14.27;10.13;;;21.70;16.80;;;;;;10292085;28;20528;-83
2022/06/09 12:34:57;;;;;;;11.35;8.88;;;22.00;3.10;;;;;;10270970;28;20488;-83
2022/06/09 12:40:22;;;;;;;10.02;8.13;;;22.50;2.20;;;;;;10257359;28;20262;-86
2022/06/09 12:46:03;;;;;;;8.32;7.57;;;22.90;1.00;;;;;;10256937;28;20199;-82
2022/06/09 12:51:34;;;;;;;10.68;8.40;;;22.90;8.30;;;;;;10255830;28;20257;-84
2022/06/09 12:57:22;;;;;;;7.88;6.80;;;23.00;25.70;;;;;;10216056;29;20223;-83
2022/06/09 13:02:44;;;;;;;6.55;5.95;;;22.90;54.30;;;;;;10260489;29;20210;-83
2022/06/09 13:08:20;;;;;;;7.90;7.10;;;22.80;55.20;;;;;;10256164;28;20286;-84
2022/06/09 13:13:45;;;;;;;7.15;5.72;;;22.80;53.60;;;;;;10271450;28;20238;-84
2022/06/09 13:19:17;;;;;;;5.93;5.40;;;22.70;49.60;;;;;;10265836;28;20587;-88
2022/06/09 13:24:41;;;;;;;6.43;5.82;;;22.60;28.10;;;;;;10263933;28;20195;-84
2022/06/09 13:30:37;;;;;;;6.80;5.20;;;22.40;44.00;;;;;;10270703;28;20283;-83
2022/06/09 13:36:32;;;;;;;5.28;4.78;;;22.30;8.90;;;;;;10262002;28;20214;-83
2022/06/09 13:42:09;;;;;;;5.97;5.45;;;22.40;3.10;;;;;;10262579;29;20195;-85
2022/06/09 13:47:34;;;;;;;7.30;5.78;;;22.40;1.00;;;;;;10277301;28;20405;-83
2022/06/09 13:53:22;;;;;;;7.50;6.30;;;22.40;1.00;;;;;;10264029;28;20247;-87
2022/06/09 13:58:43;;;;;;;5.50;5.00;;;22.30;1.00;;;;;;10272449;28;20199;-84
2022/06/09 14:04:11;;;;;;;4.97;4.43;;;22.30;1.00;;;;;;10286690;28;20278;-84
2022/06/09 14:09:33;;;;;;;9.70;8.70;;;22.50;1.00;;;;;;10285857;28;20277;-83
2022/06/09 14:14:55;;;;;;;7.30;5.95;;;22.50;1.00;;;;;;10290717;28;20203;-82
2022/06/09 14:20:22;;;;;;;4.70;4.30;;;22.50;1.00;;;;;;10299338;28;20497;-86
2022/06/09 14:25:43;;;;;;;6.97;6.10;;;22.30;7.20;;;;;;10271150;28;20186;-84
2022/06/09 14:31:05;;;;;;;7.93;5.65;;;22.40;1.00;;;;;;10291152;28;20604;-83
2022/06/09 14:36:28;;;;;;;5.57;5.07;;;22.40;1.00;;;;;;10298379;28;20236;-82
2022/06/09 14:41:50;;;;;;;5.15;4.75;;;22.40;1.00;;;;;;10293858;28;20572;-84
2022/06/09 14:47:19;;;;;;;5.50;4.95;;;22.30;1.00;;;;;;10275520;28;20505;-83
2022/06/09 14:52:41;;;;;;;5.47;4.97;;;22.20;1.00;;;;;;10290070;28;20314;-85
2022/06/09 14:58:03;;;;;;;5.13;4.60;;;22.20;1.00;;;;;;10252077;28;20504;-84
2022/06/09 15:03:25;;;;;;;5.10;4.60;;;22.10;1.00;;;;;;10276549;28;20206;-84
2022/06/09 15:08:54;;;;;;;6.35;5.40;;;22.00;1.00;;;;;;10261481;29;20225;-81
2022/06/09 15:14:15;;;;;;;6.15;5.55;;;22.10;1.00;;;;;;10277866;28;20219;-83
2022/06/09 15:19:50;;;;;;;5.63;5.03;;;22.10;1.00;;;;;;10252738;28;20501;-82
2022/06/09 15:25:14;;;;;;;5.28;4.78;;;22.10;1.00;;;;;;10278290;28;20196;-85
2022/06/09 15:30:39;;;;;;;6.07;5.50;;;22.10;1.00;;;;;;10300912;28;20546;-82
2022/06/09 15:36:01;;;;;;;4.93;4.47;;;22.10;1.00;;;;;;10288413;28;20205;-83
2022/06/09 15:41:22;;;;;;;6.95;5.63;;;22.10;1.00;;;;;;10262725;29;20246;-83
2022/06/09 15:46:44;;;;;;;5.55;4.88;;;22.10;1.00;;;;;;10263481;28;20199;-83
2022/06/09 15:52:22;;;;;;;5.68;5.10;;;22.10;1.00;;;;;;10262324;28;20263;-83
2022/06/09 15:57:44;;;;;;;5.32;4.82;;;22.20;1.00;;;;;;10262818;28;20553;-83
2022/06/09 16:03:07;;;;;;;6.20;5.60;;;22.30;1.00;;;;;;10262234;28;20415;-85
2022/06/09 16:08:29;;;;;;;9.25;5.82;;;22.50;1.00;;;;;;10275939;28;20251;-83
2022/06/09 16:13:50;;;;;;;6.10;5.38;;;22.60;1.00;;;;;;10262290;28;20305;-83
2022/06/09 16:19:12;;;;;;;6.80;5.80;;;22.50;1.00;;;;;;10262013;28;20286;-82
2022/06/09 16:24:33;;;;;;;4.75;4.35;;;22.40;1.00;;;;;;10261214;28;20501;-82
2022/06/09 16:29:58;;;;;;;5.35;4.85;;;22.30;1.00;;;;;;10261452;28;20250;-83
2022/06/09 16:35:20;;;;;;;6.60;5.50;;;22.20;1.00;;;;;;10274582;28;20207;-84
2022/06/09 16:40:43;;;;;;;6.28;5.68;;;22.20;1.00;;;;;;10274830;28;20441;-84
2022/06/09 16:46:05;;;;;;;9.57;7.90;;;22.30;1.00;;;;;;10260769;28;20369;-84
2022/06/09 16:51:27;;;;;;;8.20;7.05;;;22.30;1.00;;;;;;10260317;28;20293;-82
2022/06/09 16:56:49;;;;;;;7.05;6.35;;;22.30;1.00;;;;;;10274711;28;20544;-83
2022/06/09 17:02:10;;;;;;;7.70;6.90;;;22.20;1.00;;;;;;10259942;28;20195;-83
2022/06/09 17:07:32;;;;;;;7.65;6.30;;;22.10;1.00;;;;;;10260103;28;20203;-84
2022/06/09 17:12:54;;;;;;;7.88;7.18;;;22.10;1.00;;;;;;10273819;28;20226;-83
2022/06/09 17:18:16;;;;;;;8.07;7.38;;;22.30;1.00;;;;;;10274167;28;20422;-84
2022/06/09 17:23:38;;;;;;;7.65;6.85;;;22.10;1.00;;;;;;10260310;28;20199;-83
2022/06/09 17:29:01;;;;;;;10.43;7.10;;;22.00;1.00;;;;;;10292872;28;20273;-84
2022/06/09 17:34:22;;;;;;;7.38;6.55;;;21.70;2.70;;;;;;10276323;28;20237;-83
2022/06/09 17:39:44;;;;;;;8.20;7.38;;;21.50;21.00;;;;;;10259949;28;20514;-82
2022/06/09 17:45:08;;;;;;;6.55;5.90;;;21.20;55.00;;;;;;10273539;28;20199;-83
2022/06/09 17:50:31;;;;;;;8.65;6.82;;;20.90;99.90;;;;;;10273203;28;20253;-84
2022/06/09 17:55:54;;;;;;;7.25;6.53;;;20.80;99.90;;;;;;10259533;29;20208;-83
2022/06/09 18:01:15;;;;;;;6.80;6.10;;;20.70;99.90;;;;;;10273246;28;20198;-83
2022/06/09 18:06:36;;;;;;;8.50;7.57;;;20.60;99.90;;;;;;10266698;28;20190;-84
2022/06/09 18:11:58;;;;;;;7.63;6.78;;;20.50;99.90;;;;;;10279841;28;20230;-85
2022/06/09 18:17:19;;;;;;;7.50;6.78;;;20.50;99.90;;;;;;10269408;29;20527;-82
2022/06/09 18:22:41;;;;;;;7.63;6.88;;;20.40;99.90;;;;;;10283177;28;20187;-82
2022/06/09 18:28:03;;;;;;;7.10;6.40;;;20.30;99.90;;;;;;10306212;28;20508;-83
2022/06/09 18:33:26;;;;;;;7.63;6.82;;;20.20;99.90;;;;;;10291055;28;20525;-83
2022/06/09 18:38:47;;;;;;;7.60;6.90;;;20.10;99.90;;;;;;10252647;28;20202;-82
2022/06/09 18:44:10;;;;;;;8.77;6.68;;;20.00;99.90;;;;;;10279809;28;20511;-83
2022/06/09 18:49:32;;;;;;;7.15;6.45;;;20.00;99.90;;;;;;10265157;28;20501;-83
2022/06/09 18:54:57;;;;;;;8.65;7.78;;;20.00;99.90;;;;;;10264972;28;20258;-85
2022/06/09 19:00:21;;;;;;;9.73;8.30;;;19.90;99.90;;;;;;10265009;28;20210;-83
2022/06/09 19:05:45;;;;;;;9.85;7.68;;;19.80;99.90;;;;;;10278687;28;20200;-84
2022/06/09 19:11:08;;;;;;;11.00;9.82;;;19.70;99.90;;;;;;10291475;28;20227;-83
2022/06/09 19:16:30;;;;;;;9.77;8.65;;;19.60;99.90;;;;;;10276664;28;20260;-85
2022/06/09 19:21:51;;;;;;;10.73;8.52;;;19.50;99.90;;;;;;10251922;28;20196;-83
2022/06/09 19:27:13;;;;;;;13.45;11.05;;;19.40;99.90;;;;;;10290411;28;20548;-83
2022/06/09 19:32:36;;;;;;;16.45;12.73;;;19.40;99.90;;;;;;10290371;28;20301;-82
2022/06/09 19:37:58;;;;;;;18.92;14.10;;;19.30;99.90;;;;;;10237815;29;20207;-83
2022/06/09 19:43:20;;;;;;;19.98;15.07;;;19.30;99.90;;;;;;10244847;28;20243;-82
2022/06/09 19:48:41;;;;;;;19.92;13.73;;;19.30;99.90;;;;;;10263651;28;20545;-84
2022/06/09 19:54:04;;;;;;;21.48;15.63;;;19.30;99.90;;;;;;10276674;28;20482;-82
2022/06/09 19:59:25;;;;;;;20.30;15.60;;;19.30;99.90;;;;;;10276351;28;20451;-82
2022/06/09 20:04:47;;;;;;;23.73;16.80;;;19.30;99.90;;;;;;10276566;28;20199;-85
2022/06/09 20:10:27;;;;;;;22.38;17.80;;;19.20;99.90;;;;;;10261947;28;20222;-84
2022/06/09 20:15:49;;;;;;;21.58;16.48;;;19.10;99.90;;;;;;10277263;28;20510;-82
2022/06/09 20:21:12;;;;;;;23.60;16.50;;;19.00;99.90;;;;;;10248915;28;20417;-83
2022/06/09 20:26:34;;;;;;;19.33;13.98;;;19.00;99.90;;;;;;10275034;28;20564;-83
2022/06/09 20:31:55;;;;;;;14.88;12.48;;;18.80;99.90;;;;;;10301882;28;20226;-84
2022/06/09 20:37:22;;;;;;;13.05;10.55;;;18.80;99.90;;;;;;10279005;28;20441;-83
2022/06/09 20:42:44;;;;;;;11.27;9.65;;;18.70;99.90;;;;;;10275280;28;20199;-85
2022/06/09 20:48:11;;;;;;;12.70;10.40;;;18.70;99.90;;;;;;10260876;29;20195;-83
2022/06/09 20:53:33;;;;;;;12.45;9.95;;;18.50;99.90;;;;;;10274494;28;20239;-85
2022/06/09 20:58:55;;;;;;;11.43;10.23;;;18.50;99.90;;;;;;10274466;28;20202;-83
2022/06/09 21:04:17;;;;;;;13.85;11.55;;;18.60;99.90;;;;;;10274036;28;20473;-84
2022/06/09 21:09:38;;;;;;;14.77;11.43;;;18.50;99.90;;;;;;10260322;28;20199;-84
2022/06/09 21:20:41;;;;;;;18.13;12.63;;;18.40;99.90;;;;;;10259862;28;20237;-83
2022/06/09 21:26:02;;;;;;;14.10;11.18;;;18.40;99.90;;;;;;10269167;28;20218;-82
2022/06/09 21:31:23;;;;;;;16.85;10.57;;;18.40;99.90;;;;;;10300037;28;20232;-84
2022/06/09 21:36:45;;;;;;;11.60;10.23;;;18.30;99.90;;;;;;10268932;28;20213;-85
2022/06/09 21:42:08;;;;;;;16.90;14.13;;;18.30;99.90;;;;;;10281161;28;20238;-82
2022/06/09 21:47:30;;;;;;;17.67;15.60;;;18.30;99.90;;;;;;10267580;28;20199;-83
2022/06/09 21:52:53;;;;;;;16.48;14.68;;;18.40;99.90;;;;;;10280888;28;20247;-84
2022/06/09 21:58:14;;;;;;;21.92;15.70;;;18.40;99.90;;;;;;10267452;28;20207;-82
2022/06/09 22:03:36;;;;;;;18.67;15.75;;;18.50;99.90;;;;;;10280928;28;20195;-84
2022/06/09 22:08:57;;;;;;;16.90;14.57;;;18.50;99.90;;;;;;10274406;28;20232;-84
2022/06/09 22:14:19;;;;;;;18.33;16.30;;;18.50;99.90;;;;;;10295904;28;20222;-84
2022/06/09 22:19:41;;;;;;;16.13;14.43;;;18.40;99.90;;;;;;10279683;28;20234;-83
2022/06/09 22:25:04;;;;;;;17.25;14.30;;;18.40;99.90;;;;;;10266947;28;20199;-83
2022/06/09 22:30:28;;;;;;;16.27;13.52;;;18.50;99.90;;;;;;10319854;28;20433;-84
2022/06/09 22:35:50;;;;;;;13.27;11.98;;;18.50;99.90;;;;;;10310458;28;20397;-83
2022/06/09 22:41:12;;;;;;;12.98;11.68;;;18.50;99.90;;;;;;10280274;29;20191;-82
2022/06/09 22:46:34;;;;;;;12.77;11.48;;;18.50;99.90;;;;;;10278661;28;20195;-83
2022/06/09 22:51:55;;;;;;;13.18;11.73;;;18.50;99.90;;;;;;10275312;28;20317;-83
2022/06/09 22:57:17;;;;;;;13.82;11.85;;;18.50;99.90;;;;;;10265100;28;20199;-83
2022/06/09 23:02:39;;;;;;;13.30;11.57;;;18.50;99.90;;;;;;10264652;28;20389;-83
2022/06/09 23:08:02;;;;;;;11.73;10.60;;;18.50;99.90;;;;;;10275697;28;20195;-83
2022/06/09 23:13:24;;;;;;;14.00;12.60;;;18.50;99.90;;;;;;10278068;28;20211;-83
2022/06/09 23:18:46;;;;;;;15.15;13.55;;;18.40;99.90;;;;;;10250517;28;20210;-83
2022/06/09 23:24:08;;;;;;;18.35;15.52;;;18.40;99.90;;;;;;10263925;28;20203;-84
2022/06/09 23:29:29;;;;;;;17.75;15.35;;;18.40;99.90;;;;;;10314790;28;20190;-83
2022/06/09 23:34:50;;;;;;;17.13;15.38;;;18.40;99.90;;;;;;10299948;28;20237;-85
2022/06/09 23:40:28;;;;;;;16.60;14.90;;;18.40;99.90;;;;;;10276832;28;20274;-84
2022/06/09 23:45:52;;;;;;;18.77;16.88;;;18.30;99.90;;;;;;10263431;28;20286;-83
2022/06/09 23:51:18;;;;;;;17.55;15.63;;;18.30;99.90;;;;;;10262781;28;20251;-82
2022/06/09 23:56:39;;;;;;;17.50;15.48;;;18.30;99.90;;;;;;10262874;28;20432;-82
